Time;durP1;ratioP1;P1;durP2;ratioP2;P2;SDS_P1;SDS_P2;PMS_P1;PMS_P2;Temp;Humidity;BMP_temperature;BMP_pressure;BME280_temperature;BME280_humidity;BME280_pressure;Samples;Min_cycle;Max_cycle;Signal;HPM_P1;HPM_P2
2022/12/02 00:02:25;;;;;;;37.17;18.75;;;;;;;;;;5076768;28;20072;-57
2022/12/02 00:04:53;;;;;;;34.70;17.77;;;;;;;;;;5075172;28;20078;-58
2022/12/02 00:07:20;;;;;;;36.67;17.98;;;;;;;;;;5074461;28;20059;-57
2022/12/02 00:09:45;;;;;;;36.15;17.25;;;;;;;;;;5071918;28;20530;-57
2022/12/02 00:12:23;;;;;;;33.30;15.73;;;;;;;;;;5076407;28;20377;-57
2022/12/02 00:14:50;;;;;;;33.15;15.60;;;;;;;;;;5065260;28;20369;-57
2022/12/02 00:17:15;;;;;;;34.70;16.55;;;;;;;;;;5067576;28;20077;-57
2022/12/02 00:19:40;;;;;;;32.15;15.38;;;;;;;;;;5067148;28;20436;-57
2022/12/02 00:22:06;;;;;;;30.65;14.25;;;;;;;;;;5078372;28;20296;-58
2022/12/02 00:24:31;;;;;;;29.20;13.38;;;;;;;;;;5057137;28;20025;-58
2022/12/02 00:26:56;;;;;;;30.65;14.40;;;;;;;;;;5070751;28;20410;-58
2022/12/02 00:29:21;;;;;;;28.05;14.10;;;;;;;;;;5072924;28;20457;-58
2022/12/02 00:31:47;;;;;;;27.27;13.40;;;;;;;;;;5079813;28;20390;-58
2022/12/02 00:34:12;;;;;;;32.15;15.35;;;;;;;;;;5071442;28;20024;-59
2022/12/02 00:36:37;;;;;;;30.95;15.88;;;;;;;;;;5068904;28;20361;-59
2022/12/02 00:39:02;;;;;;;32.40;13.73;;;;;;;;;;5068217;28;20047;-58
2022/12/02 00:41:28;;;;;;;26.45;13.70;;;;;;;;;;5073830;28;20048;-58
2022/12/02 00:46:37;;;;;;;31.25;14.05;;;;;;;;;;5066304;28;20410;-58
2022/12/02 00:49:06;;;;;;;26.40;12.85;;;;;;;;;;5072837;28;20032;-58
2022/12/02 00:51:32;;;;;;;27.00;14.18;;;;;;;;;;5075138;28;20364;-58
2022/12/02 00:53:57;;;;;;;28.23;12.95;;;;;;;;;;5068934;28;20353;-58
2022/12/02 00:56:22;;;;;;;29.65;14.48;;;;;;;;;;5063679;28;20481;-59
2022/12/02 00:58:47;;;;;;;32.67;13.93;;;;;;;;;;5068593;28;20051;-59
2022/12/02 01:01:13;;;;;;;32.38;13.82;;;;;;;;;;5073113;28;20028;-58
2022/12/02 01:03:38;;;;;;;27.35;13.38;;;;;;;;;;5078031;28;20044;-58
2022/12/02 01:06:03;;;;;;;27.00;13.30;;;;;;;;;;5075434;28;20064;-58
2022/12/02 01:08:28;;;;;;;25.27;12.10;;;;;;;;;;5077282;28;20037;-59
2022/12/02 01:10:54;;;;;;;30.15;14.60;;;;;;;;;;5078957;28;20031;-59
2022/12/02 01:13:19;;;;;;;30.30;14.63;;;;;;;;;;5074897;28;20067;-58
2022/12/02 01:15:44;;;;;;;28.23;12.75;;;;;;;;;;5077562;28;20490;-58
2022/12/02 01:18:10;;;;;;;26.92;13.70;;;;;;;;;;5078340;28;20036;-58
2022/12/02 01:20:35;;;;;;;29.45;14.20;;;;;;;;;;5083690;28;20793;-58
2022/12/02 01:23:00;;;;;;;27.92;13.00;;;;;;;;;;5076158;28;20452;-58
2022/12/02 01:25:25;;;;;;;27.65;13.57;;;;;;;;;;5080482;28;20021;-58
2022/12/02 01:27:51;;;;;;;27.60;12.82;;;;;;;;;;5071874;28;20079;-58
2022/12/02 01:30:16;;;;;;;25.13;12.15;;;;;;;;;;5072415;28;20017;-58
2022/12/02 01:32:41;;;;;;;27.88;13.75;;;;;;;;;;5079576;28;20044;-57
2022/12/02 01:35:06;;;;;;;28.38;13.43;;;;;;;;;;5078082;28;20099;-57
2022/12/02 01:37:31;;;;;;;27.77;14.45;;;;;;;;;;5074645;28;20131;-57
2022/12/02 01:39:57;;;;;;;29.30;13.55;;;;;;;;;;5072701;28;20096;-57
2022/12/02 01:42:22;;;;;;;30.17;13.90;;;;;;;;;;5074505;28;20028;-57
2022/12/02 01:44:47;;;;;;;29.67;13.07;;;;;;;;;;5068129;28;20027;-57
2022/12/02 01:47:12;;;;;;;31.63;14.90;;;;;;;;;;5071121;28;20067;-57
2022/12/02 01:49:38;;;;;;;29.65;14.32;;;;;;;;;;5070681;28;20047;-57
2022/12/02 01:52:03;;;;;;;31.35;13.32;;;;;;;;;;5077950;28;20043;-57
2022/12/02 01:54:28;;;;;;;25.58;13.25;;;;;;;;;;5068534;28;20394;-57
2022/12/02 01:56:53;;;;;;;26.52;12.82;;;;;;;;;;5075813;28;20478;-57
2022/12/02 01:59:18;;;;;;;29.52;13.93;;;;;;;;;;5071327;28;20396;-57
2022/12/02 02:01:44;;;;;;;27.13;12.38;;;;;;;;;;5078116;28;20367;-57
2022/12/02 02:04:12;;;;;;;24.27;11.38;;;;;;;;;;5073784;28;20043;-57
2022/12/02 02:06:38;;;;;;;28.35;13.27;;;;;;;;;;5075541;28;20035;-57
2022/12/02 02:09:03;;;;;;;26.60;12.88;;;;;;;;;;5072097;28;20068;-57
2022/12/02 02:11:28;;;;;;;28.73;12.95;;;;;;;;;;5075684;28;20059;-57
2022/12/02 02:13:54;;;;;;;28.60;13.90;;;;;;;;;;5073109;28;20032;-57
2022/12/02 02:16:19;;;;;;;29.45;13.32;;;;;;;;;;5068093;28;20031;-57
2022/12/02 02:18:44;;;;;;;31.77;13.27;;;;;;;;;;5066055;28;20438;-57
2022/12/02 02:21:12;;;;;;;27.02;13.35;;;;;;;;;;5074387;28;20036;-57
2022/12/02 02:23:37;;;;;;;26.13;13.02;;;;;;;;;;5075739;28;20043;-57
2022/12/02 02:26:03;;;;;;;28.08;13.20;;;;;;;;;;5078612;28;20137;-57
2022/12/02 02:28:28;;;;;;;25.48;12.65;;;;;;;;;;5068575;28;20040;-57
2022/12/02 02:30:54;;;;;;;26.17;13.10;;;;;;;;;;5077948;28;20059;-57
2022/12/02 02:33:19;;;;;;;31.35;13.88;;;;;;;;;;5074757;28;20036;-57
2022/12/02 02:35:44;;;;;;;27.30;13.55;;;;;;;;;;5077197;28;20111;-57
2022/12/02 02:38:10;;;;;;;29.73;13.65;;;;;;;;;;5078388;28;20029;-57
2022/12/02 02:40:36;;;;;;;30.98;14.32;;;;;;;;;;5070836;28;20027;-56
2022/12/02 02:43:01;;;;;;;29.20;15.23;;;;;;;;;;5069771;28;20025;-57
2022/12/02 02:45:27;;;;;;;27.83;13.60;;;;;;;;;;5072283;28;20344;-57
2022/12/02 02:47:53;;;;;;;30.40;13.90;;;;;;;;;;5081043;28;20024;-57
2022/12/02 02:50:18;;;;;;;33.70;15.02;;;;;;;;;;5071013;28;20090;-57
2022/12/02 02:52:43;;;;;;;32.25;14.52;;;;;;;;;;5073925;28;20034;-57
2022/12/02 02:55:19;;;;;;;31.35;13.82;;;;;;;;;;5068910;28;20451;-57
2022/12/02 02:57:45;;;;;;;29.55;13.73;;;;;;;;;;5069209;28;20396;-57
2022/12/02 03:00:10;;;;;;;29.65;14.55;;;;;;;;;;5074108;28;20470;-57
2022/12/02 03:02:36;;;;;;;31.23;14.52;;;;;;;;;;5079272;28;20080;-57
2022/12/02 03:05:01;;;;;;;26.75;13.90;;;;;;;;;;5070410;28;20100;-57
2022/12/02 03:07:26;;;;;;;35.70;15.77;;;;;;;;;;5070173;28;20037;-57
2022/12/02 03:09:51;;;;;;;35.25;15.10;;;;;;;;;;5075736;28;20039;-57
2022/12/02 03:12:17;;;;;;;28.88;13.68;;;;;;;;;;5075598;28;20063;-57
2022/12/02 03:14:43;;;;;;;30.67;14.15;;;;;;;;;;5071707;28;20090;-57
2022/12/02 03:17:09;;;;;;;31.52;14.50;;;;;;;;;;5075695;28;20086;-57
2022/12/02 03:19:34;;;;;;;30.15;14.25;;;;;;;;;;5073503;28;20016;-57
2022/12/02 03:22:00;;;;;;;34.83;14.48;;;;;;;;;;5070655;28;20571;-57
2022/12/02 03:24:25;;;;;;;28.90;13.27;;;;;;;;;;5074213;28;20051;-57
2022/12/02 03:26:50;;;;;;;31.92;14.98;;;;;;;;;;5073417;28;20092;-57
2022/12/02 03:29:16;;;;;;;32.17;15.15;;;;;;;;;;5073241;28;20036;-57
2022/12/02 03:31:41;;;;;;;28.95;12.98;;;;;;;;;;5072974;28;20035;-57
2022/12/02 03:34:06;;;;;;;33.40;14.35;;;;;;;;;;5067202;28;20633;-57
2022/12/02 03:36:31;;;;;;;33.20;14.50;;;;;;;;;;5075571;28;20506;-57
2022/12/02 03:38:57;;;;;;;31.13;15.25;;;;;;;;;;5071230;28;20024;-57
2022/12/02 03:41:23;;;;;;;32.10;15.27;;;;;;;;;;5079659;28;20035;-57
2022/12/02 03:43:48;;;;;;;30.33;14.43;;;;;;;;;;5078916;28;20532;-57
2022/12/02 03:46:13;;;;;;;34.95;16.00;;;;;;;;;;5064223;28;20050;-57
2022/12/02 03:48:38;;;;;;;33.63;15.02;;;;;;;;;;5074643;28;20047;-57
2022/12/02 03:51:04;;;;;;;34.03;14.95;;;;;;;;;;5072759;28;20033;-57
2022/12/02 03:53:29;;;;;;;31.60;14.68;;;;;;;;;;5067831;28;20341;-57
2022/12/02 03:55:54;;;;;;;33.08;15.18;;;;;;;;;;5067160;28;20055;-57
2022/12/02 03:58:20;;;;;;;35.88;16.02;;;;;;;;;;5072255;28;20032;-57
2022/12/02 04:00:45;;;;;;;33.38;15.75;;;;;;;;;;5064419;28;20023;-57
2022/12/02 04:03:10;;;;;;;32.05;15.05;;;;;;;;;;5072919;28;20576;-57
2022/12/02 04:05:35;;;;;;;35.33;15.25;;;;;;;;;;5069286;28;20063;-56
2022/12/02 04:08:01;;;;;;;30.92;15.43;;;;;;;;;;5073224;28;20101;-57
2022/12/02 04:10:26;;;;;;;31.73;14.40;;;;;;;;;;5075701;28;20069;-57
2022/12/02 04:12:51;;;;;;;31.52;14.77;;;;;;;;;;5069189;28;20031;-57
2022/12/02 04:15:16;;;;;;;33.22;14.77;;;;;;;;;;5066391;28;20070;-57
2022/12/02 04:17:42;;;;;;;29.67;14.35;;;;;;;;;;5065852;28;20108;-57
2022/12/02 04:20:07;;;;;;;36.22;15.25;;;;;;;;;;5074321;28;20025;-58
2022/12/02 04:22:32;;;;;;;31.50;14.02;;;;;;;;;;5076445;28;20034;-57
2022/12/02 04:24:58;;;;;;;34.78;15.13;;;;;;;;;;5074050;28;20112;-57
2022/12/02 04:27:24;;;;;;;34.42;14.77;;;;;;;;;;5072771;28;20051;-57
2022/12/02 04:29:49;;;;;;;30.10;14.77;;;;;;;;;;5071375;28;20440;-57
2022/12/02 04:32:14;;;;;;;32.97;14.60;;;;;;;;;;5072558;28;20072;-57
2022/12/02 04:34:39;;;;;;;32.65;14.75;;;;;;;;;;5070216;28;20115;-58
2022/12/02 04:37:05;;;;;;;36.20;16.52;;;;;;;;;;5079794;28;20352;-57
2022/12/02 04:39:30;;;;;;;35.15;17.60;;;;;;;;;;5074406;28;20113;-57
2022/12/02 04:41:55;;;;;;;33.90;16.35;;;;;;;;;;5081115;28;20036;-57
2022/12/02 04:44:20;;;;;;;31.13;15.00;;;;;;;;;;5074407;28;20067;-57
2022/12/02 04:46:46;;;;;;;34.67;16.17;;;;;;;;;;5078643;28;20418;-57
2022/12/02 04:49:11;;;;;;;32.50;15.20;;;;;;;;;;5085327;28;20135;-57
2022/12/02 04:51:36;;;;;;;31.08;15.13;;;;;;;;;;5078991;28;20056;-57
2022/12/02 04:54:04;;;;;;;33.60;15.13;;;;;;;;;;5079717;28;20112;-57
2022/12/02 04:56:29;;;;;;;30.48;14.98;;;;;;;;;;5068981;28;20028;-57
2022/12/02 04:58:55;;;;;;;33.25;15.60;;;;;;;;;;5074875;28;20482;-57
2022/12/02 05:01:20;;;;;;;35.78;15.32;;;;;;;;;;5072591;28;20466;-57
2022/12/02 05:03:45;;;;;;;30.75;14.40;;;;;;;;;;5078006;28;20016;-57
2022/12/02 05:06:10;;;;;;;35.05;15.48;;;;;;;;;;5078865;28;20043;-57
2022/12/02 05:08:36;;;;;;;33.67;14.38;;;;;;;;;;5075395;28;20359;-57
2022/12/02 05:11:01;;;;;;;36.75;15.13;;;;;;;;;;5077653;28;20028;-57
2022/12/02 05:13:26;;;;;;;32.55;14.82;;;;;;;;;;5073417;28;20551;-57
2022/12/02 05:15:51;;;;;;;36.03;15.18;;;;;;;;;;5073783;28;20016;-57
2022/12/02 05:18:17;;;;;;;33.13;15.43;;;;;;;;;;5080521;28;20017;-58
2022/12/02 05:20:42;;;;;;;34.63;14.50;;;;;;;;;;5076259;28;20012;-57
2022/12/02 05:23:08;;;;;;;30.88;13.90;;;;;;;;;;5073902;28;20020;-57
2022/12/02 05:25:33;;;;;;;34.67;14.35;;;;;;;;;;5081661;28;20020;-57
2022/12/02 05:27:58;;;;;;;31.60;14.57;;;;;;;;;;5075740;28;20094;-57
2022/12/02 05:30:24;;;;;;;34.30;15.20;;;;;;;;;;5074694;28;20512;-57
2022/12/02 05:32:49;;;;;;;32.30;14.52;;;;;;;;;;5071064;28;20029;-57
2022/12/02 05:35:14;;;;;;;31.48;14.88;;;;;;;;;;5075076;28;20034;-57
2022/12/02 05:37:39;;;;;;;35.60;15.20;;;;;;;;;;5083158;28;20036;-57
2022/12/02 05:40:05;;;;;;;35.03;14.77;;;;;;;;;;5071401;28;20020;-57
2022/12/02 05:42:30;;;;;;;29.38;14.57;;;;;;;;;;5075271;28;20143;-57
2022/12/02 05:44:58;;;;;;;36.13;14.77;;;;;;;;;;5064879;28;20026;-57
2022/12/02 05:47:23;;;;;;;34.45;15.25;;;;;;;;;;5072754;28;20055;-57
2022/12/02 05:49:49;;;;;;;32.70;14.75;;;;;;;;;;5082268;28;20462;-57
2022/12/02 05:52:24;;;;;;;32.65;13.85;;;;;;;;;;5081297;28;20035;-57
2022/12/02 05:54:53;;;;;;;34.08;14.95;;;;;;;;;;5073675;28;20039;-57
2022/12/02 05:57:20;;;;;;;36.15;15.13;;;;;;;;;;5080752;28;20016;-57
2022/12/02 05:59:46;;;;;;;36.65;15.32;;;;;;;;;;5080856;28;20150;-57
2022/12/02 06:02:19;;;;;;;31.77;13.88;;;;;;;;;;5080109;28;20114;-57
2022/12/02 06:04:45;;;;;;;34.42;15.02;;;;;;;;;;5068687;28;20119;-57
2022/12/02 06:07:10;;;;;;;37.05;15.48;;;;;;;;;;5075179;28;20185;-57
2022/12/02 06:09:35;;;;;;;35.88;15.90;;;;;;;;;;5060475;28;20506;-57
2022/12/02 06:12:00;;;;;;;36.35;14.38;;;;;;;;;;5074435;28;20425;-57
2022/12/02 06:14:27;;;;;;;31.52;14.13;;;;;;;;;;5073088;28;20024;-57
2022/12/02 06:16:53;;;;;;;36.42;15.70;;;;;;;;;;5074695;28;20033;-57
2022/12/02 06:19:22;;;;;;;31.50;14.15;;;;;;;;;;5079788;28;20035;-57
2022/12/02 06:21:47;;;;;;;38.13;15.73;;;;;;;;;;5073223;28;20081;-57
2022/12/02 06:24:14;;;;;;;32.83;15.25;;;;;;;;;;5075432;28;20043;-57
2022/12/02 06:26:40;;;;;;;37.83;15.30;;;;;;;;;;5080355;28;20756;-57
2022/12/02 06:29:07;;;;;;;35.90;15.43;;;;;;;;;;5074081;28;20024;-56
2022/12/02 06:31:34;;;;;;;29.35;14.60;;;;;;;;;;5058380;28;20139;-57
2022/12/02 06:33:59;;;;;;;34.13;14.68;;;;;;;;;;5068397;28;20044;-57
2022/12/02 06:36:26;;;;;;;36.33;16.08;;;;;;;;;;5076500;28;20474;-57
2022/12/02 06:38:54;;;;;;;33.60;14.80;;;;;;;;;;5078016;28;20140;-57
2022/12/02 06:41:21;;;;;;;32.05;14.77;;;;;;;;;;5079945;28;20043;-57
2022/12/02 06:45:03;;;;;;;37.35;14.90;;;;;;;;;;5078771;28;20024;-57
2022/12/02 06:46:32;;;;;;;31.55;14.55;;;;;;;;;;5077318;28;20040;-57
2022/12/02 06:48:58;;;;;;;30.88;14.57;;;;;;;;;;5080867;28;20032;-57
2022/12/02 06:51:23;;;;;;;37.70;15.88;;;;;;;;;;5076357;28;20024;-57
2022/12/02 06:53:48;;;;;;;40.53;15.25;;;;;;;;;;5079685;28;20545;-57
2022/12/02 06:56:14;;;;;;;39.10;16.75;;;;;;;;;;5074262;28;20032;-57
2022/12/02 06:58:39;;;;;;;31.67;15.18;;;;;;;;;;5076127;28;20104;-57
2022/12/02 07:01:15;;;;;;;35.80;15.25;;;;;;;;;;5075143;28;20016;-57
2022/12/02 07:03:44;;;;;;;39.75;16.33;;;;;;;;;;5075490;28;20475;-57
2022/12/02 07:06:14;;;;;;;33.17;14.45;;;;;;;;;;5078043;28;20052;-57
2022/12/02 07:08:39;;;;;;;37.22;15.90;;;;;;;;;;5079329;28;20991;-57
2022/12/02 07:11:11;;;;;;;38.20;16.10;;;;;;;;;;5074674;28;20031;-58
2022/12/02 07:13:36;;;;;;;36.60;15.35;;;;;;;;;;5075499;28;20031;-58
2022/12/02 07:16:03;;;;;;;36.63;15.82;;;;;;;;;;5071364;28;20017;-57
2022/12/02 07:18:35;;;;;;;36.50;15.52;;;;;;;;;;5073232;28;20119;-58
2022/12/02 07:21:00;;;;;;;37.45;16.10;;;;;;;;;;5077473;28;20035;-58
2022/12/02 07:23:26;;;;;;;31.67;14.20;;;;;;;;;;5074520;28;20020;-57
2022/12/02 07:25:52;;;;;;;33.88;16.13;;;;;;;;;;5069728;28;20028;-58
2022/12/02 07:28:37;;;;;;;36.65;15.35;;;;;;;;;;5072606;28;20438;-58
2022/12/02 07:31:09;;;;;;;39.20;16.10;;;;;;;;;;5074040;28;20056;-57
2022/12/02 07:33:34;;;;;;;41.50;16.17;;;;;;;;;;5079451;28;20110;-57
2022/12/02 07:35:59;;;;;;;34.38;15.27;;;;;;;;;;5075308;28;20048;-58
2022/12/02 07:38:24;;;;;;;42.88;15.98;;;;;;;;;;5073676;28;20032;-58
2022/12/02 07:40:50;;;;;;;36.05;15.73;;;;;;;;;;5076639;28;20028;-58
2022/12/02 07:43:15;;;;;;;36.00;15.55;;;;;;;;;;5079305;28;20363;-58
2022/12/02 07:45:40;;;;;;;38.45;16.23;;;;;;;;;;5076538;28;20111;-58
2022/12/02 07:48:05;;;;;;;39.35;16.63;;;;;;;;;;5081740;28;20044;-58
2022/12/02 07:50:31;;;;;;;35.88;16.48;;;;;;;;;;5075528;28;20028;-58
2022/12/02 07:52:56;;;;;;;40.10;16.67;;;;;;;;;;5073654;28;20551;-58
2022/12/02 07:55:21;;;;;;;48.65;15.38;;;;;;;;;;5073528;28;20024;-58
2022/12/02 07:57:46;;;;;;;35.88;14.63;;;;;;;;;;5072897;28;20020;-57
2022/12/02 08:00:12;;;;;;;29.52;13.77;;;;;;;;;;5073632;28;20032;-58
2022/12/02 08:02:38;;;;;;;37.30;16.85;;;;;;;;;;5074867;28;20028;-57
2022/12/02 08:05:03;;;;;;;47.90;20.15;;;;;;;;;;5070066;28;20059;-57
2022/12/02 08:07:28;;;;;;;45.35;18.52;;;;;;;;;;5069484;28;20036;-59
2022/12/02 08:09:54;;;;;;;45.90;18.45;;;;;;;;;;5076928;28;20195;-58
2022/12/02 08:12:19;;;;;;;44.28;16.17;;;;;;;;;;5075689;28;20387;-57
2022/12/02 08:14:44;;;;;;;42.55;16.48;;;;;;;;;;5077549;28;20020;-57
2022/12/02 08:17:10;;;;;;;41.92;16.92;;;;;;;;;;5073853;28;20032;-58
2022/12/02 08:19:35;;;;;;;45.45;18.27;;;;;;;;;;5073887;28;20020;-57
2022/12/02 08:22:00;;;;;;;37.70;15.95;;;;;;;;;;5072884;28;20028;-57
2022/12/02 08:24:25;;;;;;;42.30;17.45;;;;;;;;;;5076463;28;20021;-57
2022/12/02 08:26:51;;;;;;;38.92;15.55;;;;;;;;;;5068036;28;20039;-57
2022/12/02 08:29:16;;;;;;;43.38;17.75;;;;;;;;;;5074202;28;20108;-57
2022/12/02 08:31:42;;;;;;;44.00;19.95;;;;;;;;;;5071131;28;20051;-57
2022/12/02 08:34:07;;;;;;;40.65;17.17;;;;;;;;;;5074986;28;20116;-57
2022/12/02 08:36:33;;;;;;;41.67;18.08;;;;;;;;;;5072008;28;20021;-57
2022/12/02 08:38:58;;;;;;;43.20;17.15;;;;;;;;;;5072110;28;20024;-57
2022/12/02 08:41:23;;;;;;;51.35;17.73;;;;;;;;;;5073020;28;20504;-57
2022/12/02 08:43:49;;;;;;;46.75;18.88;;;;;;;;;;5073992;28;20051;-57
2022/12/02 08:46:15;;;;;;;43.20;17.20;;;;;;;;;;5071636;28;20462;-59
2022/12/02 08:48:40;;;;;;;44.63;18.50;;;;;;;;;;5069849;28;20042;-59
2022/12/02 08:51:05;;;;;;;50.10;18.35;;;;;;;;;;5074887;28;20051;-59
2022/12/02 08:53:30;;;;;;;48.60;17.40;;;;;;;;;;5073777;28;20107;-56
2022/12/02 08:55:56;;;;;;;42.13;15.95;;;;;;;;;;5076033;28;20356;-56
2022/12/02 08:58:21;;;;;;;42.00;17.25;;;;;;;;;;5067100;28;20039;-58
2022/12/02 09:00:46;;;;;;;44.05;17.60;;;;;;;;;;5071608;28;20039;-58
2022/12/02 09:03:11;;;;;;;45.83;17.52;;;;;;;;;;5069801;28;20517;-57
2022/12/02 09:05:37;;;;;;;47.42;17.30;;;;;;;;;;5077440;28;20139;-59
2022/12/02 09:08:05;;;;;;;48.72;17.23;;;;;;;;;;5074508;28;20111;-58
2022/12/02 09:10:30;;;;;;;50.00;20.15;;;;;;;;;;5075556;28;20434;-58
2022/12/02 09:12:55;;;;;;;44.40;17.67;;;;;;;;;;5074833;28;20537;-58
2022/12/02 09:15:20;;;;;;;48.10;17.67;;;;;;;;;;5071959;28;20081;-58
2022/12/02 09:17:46;;;;;;;43.08;17.08;;;;;;;;;;5074860;28;20028;-58
2022/12/02 09:20:11;;;;;;;45.53;17.48;;;;;;;;;;5071656;28;20395;-58
2022/12/02 09:22:37;;;;;;;50.05;18.13;;;;;;;;;;5081640;28;20032;-58
2022/12/02 09:25:02;;;;;;;49.33;19.67;;;;;;;;;;5074454;28;20105;-58
2022/12/02 09:27:29;;;;;;;49.17;19.45;;;;;;;;;;5082763;28;20036;-58
2022/12/02 09:29:54;;;;;;;53.55;24.83;;;;;;;;;;5073653;28;20031;-58
2022/12/02 09:32:19;;;;;;;50.28;20.30;;;;;;;;;;5077724;28;20028;-59
2022/12/02 09:34:45;;;;;;;52.60;19.95;;;;;;;;;;5073371;28;20028;-57
2022/12/02 09:37:10;;;;;;;55.45;20.98;;;;;;;;;;5074431;28;20036;-58
2022/12/02 09:39:35;;;;;;;55.47;19.88;;;;;;;;;;5070491;28;20068;-58
2022/12/02 09:42:00;;;;;;;54.70;20.45;;;;;;;;;;5077072;28;20040;-58
2022/12/02 09:44:26;;;;;;;60.65;19.58;;;;;;;;;;5067779;28;20024;-58
2022/12/02 09:46:51;;;;;;;52.22;19.48;;;;;;;;;;5080890;28;20474;-58
2022/12/02 09:49:16;;;;;;;59.45;18.80;;;;;;;;;;5073674;28;20301;-58
2022/12/02 09:51:41;;;;;;;51.72;19.50;;;;;;;;;;5077373;28;20024;-58
2022/12/02 09:54:07;;;;;;;53.95;18.95;;;;;;;;;;5071439;28;20102;-63
2022/12/02 09:56:34;;;;;;;52.78;19.48;;;;;;;;;;5078315;28;20504;-59
2022/12/02 09:58:59;;;;;;;56.38;21.73;;;;;;;;;;5078204;28;20020;-58
2022/12/02 10:01:24;;;;;;;48.03;17.90;;;;;;;;;;5076456;28;20024;-58
2022/12/02 10:03:50;;;;;;;66.65;30.95;;;;;;;;;;5073414;28;20073;-58
2022/12/02 10:06:18;;;;;;;59.20;20.27;;;;;;;;;;5072364;28;20075;-58
2022/12/02 10:08:43;;;;;;;46.13;20.00;;;;;;;;;;5074191;28;20601;-58
2022/12/02 10:11:08;;;;;;;148.85;59.15;;;;;;;;;;5071218;28;20119;-57
2022/12/02 10:13:37;;;;;;;76.82;28.30;;;;;;;;;;5071034;28;20067;-57
2022/12/02 10:16:08;;;;;;;57.38;25.02;;;;;;;;;;5071246;28;20154;-57
2022/12/02 10:18:33;;;;;;;54.78;20.30;;;;;;;;;;5072519;28;20526;-57
2022/12/02 10:20:59;;;;;;;52.25;21.55;;;;;;;;;;5076932;28;20016;-58
2022/12/02 10:23:27;;;;;;;63.42;22.23;;;;;;;;;;5080128;28;20032;-57
2022/12/02 10:26:13;;;;;;;61.95;23.35;;;;;;;;;;5081935;28;20382;-58
2022/12/02 10:28:39;;;;;;;48.92;18.55;;;;;;;;;;5073133;28;20525;-58
2022/12/02 10:31:07;;;;;;;57.67;20.38;;;;;;;;;;5075367;28;20073;-57
2022/12/02 10:33:33;;;;;;;56.85;20.33;;;;;;;;;;5066316;28;20107;-57
2022/12/02 10:35:59;;;;;;;71.80;25.02;;;;;;;;;;5064010;28;20035;-57
2022/12/02 10:38:30;;;;;;;61.22;20.25;;;;;;;;;;5071691;28;20036;-57
2022/12/02 10:41:15;;;;;;;61.45;21.02;;;;;;;;;;5075488;28;20070;-58
2022/12/02 10:43:41;;;;;;;55.78;21.13;;;;;;;;;;5080663;28;20031;-57
2022/12/02 10:46:06;;;;;;;50.40;20.58;;;;;;;;;;5071393;28;20105;-57
2022/12/02 10:48:31;;;;;;;58.10;19.85;;;;;;;;;;5073050;28;20185;-57
2022/12/02 10:50:56;;;;;;;54.25;20.17;;;;;;;;;;5075201;28;20020;-57
2022/12/02 10:53:24;;;;;;;63.83;21.05;;;;;;;;;;5071491;28;20327;-57
2022/12/02 10:55:49;;;;;;;61.10;23.38;;;;;;;;;;5071269;28;20714;-57
2022/12/02 10:58:16;;;;;;;49.55;18.42;;;;;;;;;;5075202;28;20066;-57
2022/12/02 11:00:41;;;;;;;47.03;18.50;;;;;;;;;;5058955;28;20059;-57
2022/12/02 11:03:07;;;;;;;51.58;17.58;;;;;;;;;;5075641;28;20326;-57
2022/12/02 11:05:32;;;;;;;29.23;13.25;;;;;;;;;;5068035;28;20452;-57
2022/12/02 11:07:59;;;;;;;28.88;13.90;;;;;;;;;;5065162;28;20034;-57
2022/12/02 11:10:25;;;;;;;22.90;10.98;;;;;;;;;;5057874;28;20025;-57
2022/12/02 11:12:50;;;;;;;16.25;8.30;;;;;;;;;;5076118;28;20035;-57
2022/12/02 11:15:31;;;;;;;28.83;12.48;;;;;;;;;;5068695;28;20217;-57
2022/12/02 11:17:56;;;;;;;19.58;9.63;;;;;;;;;;5073705;28;20466;-57
2022/12/02 11:20:29;;;;;;;13.30;6.90;;;;;;;;;;5073384;28;20078;-57
2022/12/02 11:22:57;;;;;;;13.75;7.88;;;;;;;;;;5095342;28;20020;-57
2022/12/02 11:25:41;;;;;;;17.45;8.35;;;;;;;;;;5070759;28;20032;-57
2022/12/02 11:28:25;;;;;;;18.42;9.40;;;;;;;;;;5066118;28;20154;-56
2022/12/02 11:30:50;;;;;;;14.88;7.90;;;;;;;;;;5073318;28;20043;-56
2022/12/02 11:33:34;;;;;;;15.82;8.35;;;;;;;;;;5074686;28;20473;-56
2022/12/02 11:36:10;;;;;;;12.75;7.78;;;;;;;;;;5065963;28;20029;-56
2022/12/02 11:38:51;;;;;;;13.52;7.97;;;;;;;;;;5074940;28;20378;-56
2022/12/02 11:41:20;;;;;;;17.95;9.32;;;;;;;;;;5072364;28;20107;-56
2022/12/02 11:43:45;;;;;;;12.45;6.30;;;;;;;;;;5071296;28;20447;-57
2022/12/02 11:46:11;;;;;;;22.35;11.48;;;;;;;;;;5065372;28;20058;-57
2022/12/02 11:48:46;;;;;;;22.42;11.80;;;;;;;;;;5075676;28;20570;-57
2022/12/02 11:51:32;;;;;;;24.08;12.35;;;;;;;;;;5068946;28;20028;-57
2022/12/02 11:53:57;;;;;;;24.08;12.73;;;;;;;;;;5075562;28;20064;-57
2022/12/02 11:56:25;;;;;;;31.77;14.02;;;;;;;;;;5073942;28;20428;-57
2022/12/02 11:58:50;;;;;;;25.25;12.43;;;;;;;;;;5072590;28;20103;-57
2022/12/02 12:01:18;;;;;;;32.35;13.73;;;;;;;;;;5072085;28;20122;-57
2022/12/02 12:03:53;;;;;;;27.55;13.38;;;;;;;;;;5073204;28;20166;-57
2022/12/02 12:06:22;;;;;;;28.35;13.40;;;;;;;;;;5067972;28;20045;-57
2022/12/02 12:08:48;;;;;;;27.42;13.40;;;;;;;;;;5072316;28;20443;-57
2022/12/02 12:11:16;;;;;;;31.85;13.88;;;;;;;;;;5076487;28;20028;-58
2022/12/02 12:14:00;;;;;;;25.17;12.63;;;;;;;;;;5076675;28;20020;-59
2022/12/02 12:16:25;;;;;;;25.10;12.02;;;;;;;;;;5066914;28;20028;-57
2022/12/02 12:18:51;;;;;;;29.92;14.45;;;;;;;;;;5071810;28;20025;-57
2022/12/02 12:21:32;;;;;;;31.48;16.15;;;;;;;;;;5071248;28;20103;-58
2022/12/02 12:24:16;;;;;;;26.52;13.80;;;;;;;;;;5067706;28;20286;-58
2022/12/02 12:26:50;;;;;;;28.58;14.60;;;;;;;;;;5069774;28;20051;-58
2022/12/02 12:29:18;;;;;;;25.92;13.10;;;;;;;;;;5071511;28;20031;-58
2022/12/02 12:31:43;;;;;;;27.33;14.70;;;;;;;;;;5070835;28;20020;-57
2022/12/02 12:34:09;;;;;;;24.85;13.77;;;;;;;;;;5077204;28;20502;-57
2022/12/02 12:36:35;;;;;;;26.05;12.63;;;;;;;;;;5065868;28;20331;-58
2022/12/02 12:39:00;;;;;;;27.02;12.60;;;;;;;;;;5077848;28;20396;-59
2022/12/02 12:41:25;;;;;;;24.60;12.52;;;;;;;;;;5077425;28;20123;-57
2022/12/02 12:43:50;;;;;;;24.33;13.63;;;;;;;;;;5069914;28;20043;-57
2022/12/02 12:46:16;;;;;;;24.02;12.68;;;;;;;;;;5068560;28;20032;-57
2022/12/02 12:48:41;;;;;;;26.63;14.10;;;;;;;;;;5072983;28;20020;-60
2022/12/02 12:51:06;;;;;;;22.98;12.73;;;;;;;;;;5077744;28;20320;-57
2022/12/02 12:53:31;;;;;;;22.00;12.55;;;;;;;;;;5074550;28;20721;-57
2022/12/02 12:55:57;;;;;;;33.63;15.55;;;;;;;;;;5078618;28;20385;-57
2022/12/02 12:58:22;;;;;;;46.35;17.20;;;;;;;;;;5071946;28;20021;-57
2022/12/02 13:00:47;;;;;;;41.83;17.95;;;;;;;;;;5070026;28;20078;-57
2022/12/02 13:03:12;;;;;;;33.08;15.57;;;;;;;;;;5073384;28;20024;-58
2022/12/02 13:05:38;;;;;;;30.42;13.57;;;;;;;;;;5072192;28;20037;-57
2022/12/02 13:08:03;;;;;;;33.58;17.35;;;;;;;;;;5080417;28;20067;-57
2022/12/02 13:10:28;;;;;;;29.88;14.35;;;;;;;;;;5074103;28;20016;-57
2022/12/02 13:12:54;;;;;;;30.80;15.18;;;;;;;;;;5078993;28;20024;-57
2022/12/02 13:15:19;;;;;;;30.80;13.48;;;;;;;;;;5075924;28;20039;-56
2022/12/02 13:17:44;;;;;;;39.10;17.67;;;;;;;;;;5079174;28;20428;-57
2022/12/02 13:20:10;;;;;;;25.67;14.05;;;;;;;;;;5080927;28;20127;-56
2022/12/02 13:22:35;;;;;;;66.03;24.60;;;;;;;;;;5080338;28;20063;-57
2022/12/02 13:25:00;;;;;;;130.15;39.97;;;;;;;;;;5076537;28;20028;-57
2022/12/02 13:27:25;;;;;;;40.38;16.80;;;;;;;;;;5069231;28;20040;-57
2022/12/02 13:29:53;;;;;;;26.48;14.05;;;;;;;;;;5079515;28;20578;-58
2022/12/02 13:32:19;;;;;;;29.75;14.80;;;;;;;;;;5076919;28;20020;-58
2022/12/02 13:34:44;;;;;;;33.25;18.27;;;;;;;;;;5076437;28;20024;-58
2022/12/02 13:37:09;;;;;;;29.08;14.40;;;;;;;;;;5070214;28;20067;-58
2022/12/02 13:39:35;;;;;;;32.88;16.02;;;;;;;;;;5071284;28;20025;-59
2022/12/02 13:42:00;;;;;;;31.10;15.80;;;;;;;;;;5068168;28;20047;-57
2022/12/02 13:44:25;;;;;;;25.25;14.02;;;;;;;;;;5072650;28;20020;-58
2022/12/02 13:46:51;;;;;;;26.13;13.68;;;;;;;;;;5067533;28;20113;-58
2022/12/02 13:49:16;;;;;;;31.98;14.93;;;;;;;;;;5074445;28;20042;-58
2022/12/02 13:51:41;;;;;;;33.53;15.00;;;;;;;;;;5078718;28;20474;-58
2022/12/02 13:54:06;;;;;;;31.48;14.02;;;;;;;;;;5074442;28;20493;-57
2022/12/02 13:56:32;;;;;;;30.35;15.05;;;;;;;;;;5071601;28;20029;-58
2022/12/02 13:58:57;;;;;;;30.60;14.35;;;;;;;;;;5072944;28;20042;-58
2022/12/02 14:01:22;;;;;;;29.85;13.82;;;;;;;;;;5079916;28;20032;-57
2022/12/02 14:03:47;;;;;;;30.25;13.82;;;;;;;;;;5073833;28;20059;-57
2022/12/02 14:06:12;;;;;;;29.20;14.23;;;;;;;;;;5078042;28;20040;-57
2022/12/02 14:08:38;;;;;;;23.95;12.73;;;;;;;;;;5071993;28;20421;-57
2022/12/02 14:11:03;;;;;;;25.55;12.85;;;;;;;;;;5077835;28;20090;-58
2022/12/02 14:13:28;;;;;;;23.52;12.90;;;;;;;;;;5071644;28;20040;-57
2022/12/02 14:15:53;;;;;;;24.25;13.02;;;;;;;;;;5072217;28;20348;-58
2022/12/02 14:18:19;;;;;;;23.48;13.32;;;;;;;;;;5070975;28;20257;-58